This is the latest recevied weather packets stored in our database for station/object DH9SB-6. If no packets are shown the sender has not sent any weather packets the latest 10 day(s).
| Time | Temp. | Humidity | Pressure | Rain* | Wind** | Luminosity | Snow |
|---|---|---|---|---|---|---|---|
| 1787496449 | 22.22° C | 42% | - | 0 mm | - | - | - |
| 1787495871 | 23.33° C | 37% | - | 0 mm | - | - | - |
| 1787495295 | 24.44° C | 35% | - | 0 mm | - | - | - |
| 1787494671 | 25° C | 35% | - | 0 mm | - | - | - |
| 1787494048 | 25° C | 33% | - | 0 mm | - | - | - |
| 1787493472 | 24.44° C | 34% | - | 0 mm | - | - | - |
| 1787492847 | 24.44° C | 35% | - | 0 mm | - | - | - |
| 1787492271 | 24.44° C | 34% | - | 0 mm | - | - | - |
| 1787491648 | 25° C | 36% | - | 0 mm | - | - | - |
| 1787491072 | 24.44° C | 38% | - | 0 mm | - | - | - |
| 1787490447 | 23.89° C | 37% | - | 0 mm | - | - | - |
| 1787489872 | 24.44° C | 39% | - | 0 mm | - | - | - |
| 1787489247 | 25° C | 39% | - | 0 mm | - | - | - |
| 1787488671 | 25.56° C | 37% | - | 0 mm | - | - | - |
| 1787488048 | 25° C | 41% | - | 0 mm | - | - | - |
| 1787487472 | 23.33° C | 42% | - | 0 mm | - | - | - |
| 1787486847 | 22.78° C | 42% | - | 0 mm | - | - | - |
| 1787486271 | 22.78° C | 42% | - | 0 mm | - | - | - |
| 1787485648 | 23.33° C | 42% | - | 0 mm | - | - | - |
| 1787485072 | 23.33° C | 42% | - | 0 mm | - | - | - |
| 1787484159 | 23.89° C | 42% | - | 0 mm | - | - | - |
| 1787483632 | 23.89° C | 43% | - | 0 mm | - | - | - |
| 1787482960 | 22.78° C | 44% | - | 0 mm | - | - | - |
| 1787482384 | 22.22° C | 48% | - | 0 mm | - | - | - |
| 1787481808 | 22.22° C | 49% | - | 0 mm | - | - | - |
* Rain latest hour (hover to see other rain measurements)
** Current wind speed in m/s (hover to see current wind gust speed)